San Francisco, California
Traffic Map
Current Weather Conditions
San Francisco, California
Few Clouds
Few Clouds
23°
Feels Like: 23°
Wind Chill: 23° Ceiling: Unl
Heat Index: 23° Visibility: 10mi
Dew Point: 12° Wind: 14mph
Humidity: 49% Direction: 190° (S)
Pressure: 29.83in Gusts: 0mph
Raw Report DataKSFO 242156Z 19012KT 10SM FEW050 23/12 A2983 RMK AO2 SLP101 T02280117
Traffic Incident Summary
Active as of:
Severity:
Category:
InformationThere was an issue retrieving the traffic information for this location. Please try a different location or try again shortly.
Advertisements
Track Severe Weather on mobile